Time;durP1;ratioP1;P1;durP2;ratioP2;P2;SDS_P1;SDS_P2;PMS_P1;PMS_P2;Temp;Humidity;BMP_temperature;BMP_pressure;BME280_temperature;BME280_humidity;BME280_pressure;Samples;Min_cycle;Max_cycle;Signal;HPM_P1;HPM_P2
2021/11/06 00:00:16;;;;;;;34.80;31.90;;;5.90;96.20;;;;;;5086123;28;20595;-74
2021/11/06 00:02:43;;;;;;;34.90;31.80;;;5.80;96.50;;;;;;5084777;28;20237;-74
2021/11/06 00:05:10;;;;;;;36.88;33.63;;;5.80;96.30;;;;;;5085570;28;20191;-78
2021/11/06 00:07:37;;;;;;;91.65;37.67;;;5.90;95.70;;;;;;5084324;28;20893;-74
2021/11/06 00:10:07;;;;;;;40.67;32.45;;;5.90;95.30;;;;;;5085415;27;20301;-76
2021/11/06 00:12:34;;;;;;;37.00;33.72;;;5.80;95.90;;;;;;5089885;28;20294;-76
2021/11/06 00:15:01;;;;;;;35.35;32.17;;;5.70;96.20;;;;;;5086084;28;20311;-75
2021/11/06 00:17:28;;;;;;;36.30;33.22;;;5.60;96.20;;;;;;5089283;28;20199;-75
2021/11/06 00:19:55;;;;;;;36.42;33.13;;;5.50;96.40;;;;;;5085257;27;20191;-74
2021/11/06 00:22:25;;;;;;;33.70;30.85;;;5.50;96.20;;;;;;5085920;28;20238;-76
2021/11/06 00:24:52;;;;;;;37.00;33.40;;;5.60;96.10;;;;;;5087823;28;20725;-77
2021/11/06 00:27:20;;;;;;;37.45;33.78;;;5.60;95.50;;;;;;5088768;28;20195;-74
2021/11/06 00:29:47;;;;;;;34.58;31.50;;;5.50;96.20;;;;;;5087393;28;20204;-74
2021/11/06 00:32:14;;;;;;;35.42;31.85;;;5.40;96.30;;;;;;5086912;28;20300;-74
2021/11/06 00:34:41;;;;;;;34.40;31.30;;;5.40;96.50;;;;;;5086755;28;20596;-74
2021/11/06 00:37:08;;;;;;;36.08;32.60;;;5.40;96.30;;;;;;5086736;28;20222;-74
2021/11/06 00:39:35;;;;;;;35.13;32.10;;;5.40;95.80;;;;;;5086778;28;20196;-74
2021/11/06 00:42:02;;;;;;;36.00;32.70;;;5.40;95.20;;;;;;5091548;28;20215;-74
2021/11/06 00:44:31;;;;;;;35.35;32.10;;;5.40;95.10;;;;;;5083288;28;20215;-74
2021/11/06 00:46:58;;;;;;;36.03;32.63;;;5.30;95.00;;;;;;5083734;28;20199;-74
2021/11/06 00:49:25;;;;;;;35.03;31.95;;;5.30;95.10;;;;;;5092208;28;20199;-75
2021/11/06 00:51:52;;;;;;;38.85;35.35;;;5.20;95.30;;;;;;5090391;28;20219;-77
2021/11/06 00:54:19;;;;;;;35.88;32.45;;;5.20;95.80;;;;;;5088838;28;20193;-74
2021/11/06 00:56:46;;;;;;;34.33;31.20;;;5.10;95.30;;;;;;5093417;28;20199;-74
2021/11/06 00:59:13;;;;;;;35.28;31.90;;;5.00;95.20;;;;;;5090614;28;20683;-74
2021/11/06 01:01:41;;;;;;;35.85;32.35;;;5.00;95.50;;;;;;5089257;28;20286;-74
2021/11/06 01:04:08;;;;;;;34.65;31.55;;;5.00;95.30;;;;;;5088386;28;20218;-75
2021/11/06 01:06:35;;;;;;;35.05;31.92;;;5.00;95.20;;;;;;5091699;28;20283;-75
2021/11/06 01:09:02;;;;;;;37.28;33.78;;;4.90;95.70;;;;;;5089765;28;20199;-76
2021/11/06 01:11:29;;;;;;;35.35;31.95;;;4.90;95.80;;;;;;5088437;28;20772;-75
2021/11/06 01:13:56;;;;;;;36.55;33.25;;;4.90;95.90;;;;;;5089386;28;20260;-74
2021/11/06 01:16:23;;;;;;;34.28;31.20;;;4.90;95.60;;;;;;5090080;28;20203;-75
2021/11/06 01:18:51;;;;;;;34.63;31.58;;;4.80;95.50;;;;;;5091309;28;20286;-75
2021/11/06 01:21:18;;;;;;;35.17;31.88;;;4.80;95.50;;;;;;5089599;28;20197;-75
2021/11/06 01:23:45;;;;;;;35.00;32.00;;;4.70;95.70;;;;;;5089301;28;20704;-74
2021/11/06 01:26:12;;;;;;;37.03;33.63;;;4.70;95.60;;;;;;5089597;28;20657;-74
2021/11/06 01:28:39;;;;;;;35.08;32.08;;;4.70;95.80;;;;;;5078428;28;20191;-73
2021/11/06 01:31:06;;;;;;;36.45;33.25;;;4.70;95.40;;;;;;5086792;28;20659;-75
2021/11/06 01:33:33;;;;;;;35.80;32.35;;;4.60;95.30;;;;;;5089989;28;20581;-74
2021/11/06 01:36:02;;;;;;;34.25;31.15;;;4.60;96.30;;;;;;5089300;28;20199;-75
2021/11/06 01:38:29;;;;;;;33.40;30.20;;;4.60;96.00;;;;;;5089775;28;20211;-75
2021/11/06 01:40:56;;;;;;;34.80;31.33;;;4.60;95.80;;;;;;5089634;28;20221;-74
2021/11/06 01:43:23;;;;;;;34.15;31.05;;;4.60;95.80;;;;;;5088787;28;20217;-72
2021/11/06 01:45:55;;;;;;;33.35;30.45;;;4.50;95.60;;;;;;5082044;28;20270;-72
2021/11/06 01:48:23;;;;;;;34.97;31.83;;;4.50;95.60;;;;;;5089126;28;20231;-73
2021/11/06 01:50:50;;;;;;;34.75;31.77;;;4.40;95.60;;;;;;5088109;28;20700;-73
2021/11/06 01:53:18;;;;;;;33.22;30.27;;;4.40;95.50;;;;;;5089183;28;20294;-73
2021/11/06 01:55:45;;;;;;;33.78;30.58;;;4.30;95.70;;;;;;5088858;28;20280;-73
2021/11/06 01:58:13;;;;;;;34.58;31.27;;;4.40;95.60;;;;;;5089871;28;20436;-73
2021/11/06 02:00:40;;;;;;;33.22;30.42;;;4.30;96.80;;;;;;5088607;28;20206;-73
2021/11/06 02:03:08;;;;;;;33.97;30.90;;;4.40;96.30;;;;;;5089626;28;20233;-72
2021/11/06 02:05:35;;;;;;;33.28;30.38;;;4.40;96.00;;;;;;5079565;28;20195;-72
2021/11/06 02:08:02;;;;;;;32.00;29.15;;;4.30;96.10;;;;;;5088147;28;20560;-73
2021/11/06 02:10:31;;;;;;;182.18;41.47;;;4.30;96.70;;;;;;5088631;28;20553;-73
2021/11/06 02:12:58;;;;;;;744.88;104.78;;;4.30;99.80;;;;;;5088956;28;20230;-73
2021/11/06 02:15:25;;;;;;;32.28;29.45;;;4.40;99.90;;;;;;5087868;28;20565;-73
2021/11/06 02:17:52;;;;;;;32.55;29.55;;;4.40;99.90;;;;;;5089181;28;20619;-72
2021/11/06 02:20:21;;;;;;;31.95;29.13;;;4.40;99.10;;;;;;5088535;28;20201;-72
2021/11/06 02:22:50;;;;;;;32.38;29.70;;;4.40;98.20;;;;;;5083081;28;20215;-73
2021/11/06 02:25:18;;;;;;;31.90;29.05;;;4.30;97.80;;;;;;5082281;28;20199;-73
2021/11/06 02:27:46;;;;;;;30.92;28.27;;;4.30;97.40;;;;;;5083581;28;20209;-72
2021/11/06 02:30:16;;;;;;;1268.97;186.68;;;4.30;96.80;;;;;;5081012;28;20211;-73
2021/11/06 02:32:43;;;;;;;322.05;61.65;;;4.20;97.90;;;;;;5088349;28;20719;-73
2021/11/06 02:35:11;;;;;;;34.03;30.80;;;4.20;99.60;;;;;;5087472;28;20210;-74
2021/11/06 02:37:38;;;;;;;35.13;31.80;;;4.30;98.70;;;;;;5089183;28;20203;-74
2021/11/06 02:40:09;;;;;;;32.83;29.92;;;4.20;97.70;;;;;;5087336;28;20278;-73
2021/11/06 02:42:36;;;;;;;33.17;30.27;;;4.20;97.20;;;;;;5088946;28;20219;-72
2021/11/06 02:45:04;;;;;;;32.38;29.48;;;4.20;96.70;;;;;;5078272;28;20231;-72
2021/11/06 02:47:31;;;;;;;30.58;28.08;;;4.20;96.60;;;;;;5089244;28;20223;-73
2021/11/06 02:49:59;;;;;;;33.80;30.73;;;4.20;96.10;;;;;;5088377;28;20231;-72
2021/11/06 02:52:26;;;;;;;31.52;28.63;;;4.00;95.40;;;;;;5078581;28;20241;-73
2021/11/06 02:54:53;;;;;;;31.10;28.55;;;4.00;95.60;;;;;;5088231;28;20649;-72
2021/11/06 02:57:21;;;;;;;33.85;30.92;;;3.90;95.70;;;;;;5088081;28;20205;-73
2021/11/06 02:59:50;;;;;;;32.72;29.80;;;4.10;95.10;;;;;;5087824;28;20222;-72
2021/11/06 03:02:17;;;;;;;35.03;31.67;;;4.10;94.70;;;;;;5085216;28;20308;-73
2021/11/06 03:04:44;;;;;;;35.20;32.10;;;4.10;94.30;;;;;;5085445;28;20218;-72
2021/11/06 03:07:11;;;;;;;38.70;35.10;;;4.00;93.80;;;;;;5077147;28;20233;-72
2021/11/06 03:09:39;;;;;;;43.38;39.17;;;3.90;94.00;;;;;;5088218;28;20192;-73
2021/11/06 03:12:11;;;;;;;42.33;38.38;;;3.90;94.10;;;;;;5085885;28;20218;-73
2021/11/06 03:14:42;;;;;;;47.92;43.30;;;3.80;94.20;;;;;;5088021;28;20207;-72
2021/11/06 03:17:09;;;;;;;76.78;68.07;;;3.70;97.00;;;;;;5087922;28;20259;-73
2021/11/06 03:19:36;;;;;;;74.63;66.55;;;3.70;96.00;;;;;;5087712;28;20198;-73
2021/11/06 03:22:04;;;;;;;62.65;53.30;;;3.70;95.20;;;;;;5086462;28;20302;-73
2021/11/06 03:24:31;;;;;;;817.17;128.15;;;3.60;95.50;;;;;;5088057;28;20691;-74
2021/11/06 03:26:58;;;;;;;52.92;47.30;;;3.60;95.70;;;;;;5081657;28;20192;-74
2021/11/06 03:29:25;;;;;;;43.85;39.47;;;3.60;97.60;;;;;;5083067;28;20286;-74
2021/11/06 03:31:53;;;;;;;36.58;33.35;;;3.60;97.90;;;;;;5088578;28;20241;-75
2021/11/06 03:34:20;;;;;;;32.53;29.60;;;3.60;96.20;;;;;;5087982;28;20191;-75
2021/11/06 03:36:47;;;;;;;133.82;39.38;;;3.50;96.00;;;;;;5082288;28;20227;-74
2021/11/06 03:39:14;;;;;;;212.55;50.85;;;3.60;95.80;;;;;;5081304;28;20691;-75
2021/11/06 03:41:41;;;;;;;34.53;31.63;;;3.50;96.30;;;;;;5082287;28;20195;-75
2021/11/06 03:44:08;;;;;;;34.25;31.25;;;3.50;96.50;;;;;;5078867;28;20233;-74
2021/11/06 03:46:36;;;;;;;33.90;31.00;;;3.60;96.00;;;;;;5086114;28;20188;-74
2021/11/06 03:49:05;;;;;;;33.55;30.50;;;3.40;95.40;;;;;;5088138;28;20187;-74
2021/11/06 03:51:32;;;;;;;32.88;30.00;;;3.40;95.50;;;;;;5087213;28;20198;-74
2021/11/06 03:53:58;;;;;;;290.90;58.70;;;3.40;95.40;;;;;;5088060;28;20191;-74
2021/11/06 03:56:25;;;;;;;1999.90;393.25;;;3.40;97.50;;;;;;5087455;28;20194;-74
2021/11/06 03:58:53;;;;;;;51.17;32.13;;;3.40;99.90;;;;;;5087773;28;20727;-77
2021/11/06 04:01:20;;;;;;;301.65;56.03;;;3.50;99.90;;;;;;5086598;28;20195;-74
2021/11/06 04:03:47;;;;;;;32.25;29.13;;;3.60;99.90;;;;;;5088007;28;20312;-74
2021/11/06 04:06:15;;;;;;;459.50;82.85;;;3.70;99.90;;;;;;5086875;28;20205;-74
2021/11/06 04:08:43;;;;;;;233.95;53.83;;;3.70;99.90;;;;;;5076169;28;20565;-74
2021/11/06 04:11:10;;;;;;;32.95;30.05;;;3.70;99.90;;;;;;5086162;28;20199;-74
2021/11/06 04:13:37;;;;;;;38.50;33.17;;;3.70;99.90;;;;;;5083804;28;20278;-74
2021/11/06 04:16:04;;;;;;;34.05;30.85;;;3.70;99.90;;;;;;5091309;28;20195;-74
2021/11/06 04:18:31;;;;;;;33.97;30.90;;;3.80;99.90;;;;;;5091917;28;20295;-74
2021/11/06 04:20:58;;;;;;;33.50;30.58;;;3.80;99.60;;;;;;5092360;28;20194;-77
2021/11/06 04:23:26;;;;;;;33.55;30.45;;;3.80;99.20;;;;;;5083088;28;20558;-74
2021/11/06 04:25:53;;;;;;;35.67;32.50;;;3.80;98.70;;;;;;5100246;28;20194;-74
2021/11/06 04:28:20;;;;;;;691.70;105.40;;;3.70;98.40;;;;;;5090183;28;20587;-74
2021/11/06 04:30:47;;;;;;;33.67;30.45;;;3.80;99.30;;;;;;5092272;28;20210;-74
2021/11/06 04:33:14;;;;;;;1999.90;368.33;;;3.80;98.90;;;;;;5090568;28;20261;-74
2021/11/06 04:35:41;;;;;;;437.48;75.68;;;3.80;98.80;;;;;;5092135;28;20534;-77
2021/11/06 04:38:09;;;;;;;316.98;56.65;;;3.90;99.90;;;;;;5090723;28;20201;-74
2021/11/06 04:40:38;;;;;;;33.00;30.10;;;3.90;99.90;;;;;;5091405;28;20202;-74
2021/11/06 04:43:05;;;;;;;121.60;38.88;;;3.90;99.90;;;;;;5089755;28;20221;-74
2021/11/06 04:45:32;;;;;;;33.88;30.67;;;3.80;99.40;;;;;;5092270;28;20588;-74
2021/11/06 04:47:59;;;;;;;146.63;41.22;;;3.80;99.90;;;;;;5078017;28;20204;-73
2021/11/06 04:50:26;;;;;;;1999.90;465.00;;;3.80;99.90;;;;;;5092043;28;20230;-72
2021/11/06 04:52:53;;;;;;;1999.90;729.47;;;3.70;99.90;;;;;;5089588;28;20233;-74
2021/11/06 04:55:20;;;;;;;273.17;55.47;;;3.80;99.90;;;;;;5091531;28;20192;-76
2021/11/06 04:57:49;;;;;;;165.65;45.28;;;3.80;99.90;;;;;;5078051;28;20306;-75
2021/11/06 05:00:18;;;;;;;1999.90;527.90;;;3.80;99.90;;;;;;5091227;28;20199;-75
2021/11/06 05:02:45;;;;;;;1107.47;161.85;;;3.70;99.90;;;;;;5089762;28;20324;-74
2021/11/06 05:05:12;;;;;;;1999.90;817.97;;;3.70;99.90;;;;;;5091586;28;20215;-76
2021/11/06 05:07:39;;;;;;;327.40;67.75;;;3.70;99.90;;;;;;5089104;28;20348;-75
2021/11/06 05:10:08;;;;;;;1999.90;301.58;;;3.70;99.90;;;;;;5090151;28;20206;-75
2021/11/06 05:12:35;;;;;;;1999.90;671.03;;;3.70;99.90;;;;;;5082400;28;20696;-78
2021/11/06 05:15:05;;;;;;;33.20;30.20;;;3.60;99.90;;;;;;5090647;28;20237;-73
2021/11/06 05:17:33;;;;;;;34.47;31.35;;;3.60;99.90;;;;;;5089842;28;20199;-73
2021/11/06 05:20:00;;;;;;;35.25;31.65;;;3.60;99.90;;;;;;5087393;28;20740;-74
2021/11/06 05:22:28;;;;;;;857.45;120.82;;;3.70;99.90;;;;;;5088227;28;20220;-73
2021/11/06 05:24:55;;;;;;;1999.90;509.85;;;3.50;99.80;;;;;;5090770;28;20227;-73
2021/11/06 05:27:22;;;;;;;33.10;30.23;;;3.50;99.90;;;;;;5089828;28;20206;-73
2021/11/06 05:29:50;;;;;;;30.50;27.67;;;3.50;99.90;;;;;;5089596;28;20194;-73
2021/11/06 05:32:18;;;;;;;173.20;43.70;;;3.40;99.70;;;;;;5087284;28;20219;-75
2021/11/06 05:34:45;;;;;;;111.22;35.50;;;3.40;99.90;;;;;;5090828;28;20187;-74
2021/11/06 05:37:12;;;;;;;30.90;28.33;;;3.40;99.90;;;;;;5088939;28;20226;-74
2021/11/06 05:39:39;;;;;;;1999.90;660.30;;;3.40;99.40;;;;;;5089560;28;20195;-74
2021/11/06 05:42:06;;;;;;;1817.55;307.42;;;3.30;99.90;;;;;;5088803;28;20224;-74
2021/11/06 05:44:33;;;;;;;499.85;82.47;;;3.30;99.90;;;;;;5089388;28;20591;-75
2021/11/06 05:47:00;;;;;;;78.82;33.88;;;3.30;99.90;;;;;;5082613;28;20200;-75
2021/11/06 05:49:28;;;;;;;1999.90;640.90;;;3.20;99.90;;;;;;5084962;28;20279;-74
2021/11/06 05:51:55;;;;;;;1999.90;477.70;;;3.20;99.90;;;;;;5088588;28;20304;-73
2021/11/06 05:54:22;;;;;;;88.88;35.28;;;3.20;99.90;;;;;;5089705;28;20205;-73
2021/11/06 05:56:49;;;;;;;1294.85;182.48;;;3.10;99.90;;;;;;5089052;28;20202;-73
2021/11/06 05:59:16;;;;;;;32.88;30.00;;;3.10;99.90;;;;;;5090388;28;20225;-73
2021/11/06 06:01:43;;;;;;;1020.17;152.93;;;3.10;99.90;;;;;;5081446;28;20198;-73
2021/11/06 06:04:10;;;;;;;1430.53;231.02;;;3.00;99.90;;;;;;5089151;28;20194;-73
2021/11/06 06:06:38;;;;;;;1545.47;224.25;;;3.00;99.90;;;;;;5088845;28;20650;-74
2021/11/06 06:09:05;;;;;;;831.15;112.57;;;3.10;99.90;;;;;;5089781;28;20546;-73
2021/11/06 06:11:33;;;;;;;546.53;80.40;;;3.10;99.90;;;;;;5081487;28;20199;-72
2021/11/06 06:14:00;;;;;;;254.80;50.50;;;3.10;99.90;;;;;;5088878;28;20218;-74
2021/11/06 06:16:28;;;;;;;29.17;26.63;;;3.10;99.90;;;;;;5087357;27;20205;-74
2021/11/06 06:18:55;;;;;;;34.70;28.90;;;3.10;99.90;;;;;;5089660;28;20203;-74
2021/11/06 06:21:22;;;;;;;31.73;28.58;;;3.10;99.90;;;;;;5088323;28;20213;-74
2021/11/06 06:23:50;;;;;;;30.17;27.08;;;3.10;99.90;;;;;;5089473;28;20305;-74
2021/11/06 06:26:17;;;;;;;129.20;36.17;;;3.10;99.90;;;;;;5087033;28;22265;-74
2021/11/06 06:28:44;;;;;;;1999.90;834.92;;;3.10;99.90;;;;;;5079938;28;20205;-74
2021/11/06 06:31:11;;;;;;;35.83;32.22;;;3.00;99.90;;;;;;5088358;28;20277;-75
2021/11/06 06:33:38;;;;;;;1999.90;726.90;;;3.10;99.90;;;;;;5088431;28;20227;-74
2021/11/06 06:36:05;;;;;;;506.88;80.70;;;3.10;99.90;;;;;;5088242;28;20289;-73
2021/11/06 06:38:33;;;;;;;1999.90;687.55;;;3.10;99.90;;;;;;5076712;28;20198;-74
2021/11/06 06:41:01;;;;;;;34.22;31.05;;;3.20;99.90;;;;;;5088426;28;20207;-73
2021/11/06 06:43:29;;;;;;;56.95;32.47;;;3.30;99.90;;;;;;5085961;28;20302;-73
2021/11/06 06:45:56;;;;;;;33.13;29.80;;;3.20;99.90;;;;;;5086086;28;20217;-73
2021/11/06 06:48:23;;;;;;;154.75;39.17;;;3.30;99.90;;;;;;5085872;28;20396;-74
2021/11/06 06:50:51;;;;;;;1292.13;196.18;;;3.30;99.90;;;;;;5089451;28;20205;-74
2021/11/06 06:53:20;;;;;;;29.48;26.58;;;3.30;99.90;;;;;;5087468;28;20254;-73
2021/11/06 06:55:47;;;;;;;761.90;110.05;;;3.40;99.90;;;;;;5089170;28;20203;-73
2021/11/06 06:58:15;;;;;;;1962.70;311.02;;;3.40;99.90;;;;;;5079331;28;20205;-73
2021/11/06 07:00:42;;;;;;;341.88;62.22;;;3.40;99.90;;;;;;5088402;28;20205;-73
2021/11/06 07:03:09;;;;;;;28.95;26.20;;;3.50;99.90;;;;;;5086632;28;20221;-72
2021/11/06 07:05:36;;;;;;;28.02;25.38;;;3.70;99.90;;;;;;5088594;28;20306;-75
2021/11/06 07:08:05;;;;;;;30.42;27.45;;;3.70;99.40;;;;;;5080722;28;20617;-76
2021/11/06 07:10:33;;;;;;;32.38;29.25;;;3.70;98.60;;;;;;5088933;28;20186;-79
2021/11/06 07:13:01;;;;;;;29.73;26.83;;;3.70;98.70;;;;;;5082351;28;20245;-78
2021/11/06 07:15:29;;;;;;;31.25;28.45;;;3.80;98.10;;;;;;5080840;28;20203;-78
2021/11/06 07:17:56;;;;;;;63.08;30.98;;;3.80;97.50;;;;;;5086911;28;20252;-76
2021/11/06 07:23:06;;;;;;;30.88;28.10;;;3.90;97.40;;;;;;5085090;28;20222;-76
2021/11/06 07:25:33;;;;;;;28.92;26.10;;;3.80;97.50;;;;;;5089177;28;20218;-77
2021/11/06 07:28:01;;;;;;;29.70;26.85;;;3.90;97.60;;;;;;5086673;28;20222;-76
2021/11/06 07:30:29;;;;;;;30.73;27.85;;;4.00;97.60;;;;;;5089433;28;20206;-78
2021/11/06 07:32:56;;;;;;;29.02;26.30;;;4.00;96.00;;;;;;5083972;28;20306;-77
2021/11/06 07:35:23;;;;;;;471.10;84.35;;;3.90;96.10;;;;;;5090281;28;20187;-77
2021/11/06 07:37:50;;;;;;;50.63;28.10;;;4.00;96.10;;;;;;5089442;28;20206;-78
2021/11/06 07:40:17;;;;;;;28.48;25.77;;;4.10;96.40;;;;;;5089420;28;20199;-76
2021/11/06 07:42:47;;;;;;;989.85;142.80;;;4.10;96.40;;;;;;5078462;28;20218;-78
2021/11/06 07:45:16;;;;;;;27.52;25.10;;;4.20;98.40;;;;;;5078503;28;20223;-76
2021/11/06 07:47:44;;;;;;;27.40;25.00;;;4.30;97.70;;;;;;5080824;28;20191;-75
2021/11/06 07:50:13;;;;;;;26.63;24.40;;;4.50;97.40;;;;;;5089335;28;20253;-74
2021/11/06 07:52:40;;;;;;;726.65;107.55;;;4.60;95.80;;;;;;5087394;28;20306;-74
2021/11/06 07:55:11;;;;;;;25.98;23.88;;;4.60;95.70;;;;;;5084343;28;20195;-74
2021/11/06 07:57:38;;;;;;;26.67;24.48;;;4.60;95.10;;;;;;5072205;28;20226;-75
2021/11/06 08:00:07;;;;;;;26.27;24.25;;;4.60;94.40;;;;;;5077266;28;20199;-74
2021/11/06 08:02:34;;;;;;;26.55;24.65;;;4.70;94.10;;;;;;5080988;28;20211;-75
2021/11/06 08:05:03;;;;;;;24.85;22.65;;;4.70;93.10;;;;;;5079899;28;20215;-75
2021/11/06 08:07:30;;;;;;;24.10;22.30;;;4.70;93.20;;;;;;5089372;28;20198;-75
2021/11/06 08:09:56;;;;;;;23.83;21.98;;;4.90;93.20;;;;;;5087930;28;20233;-74
2021/11/06 08:12:23;;;;;;;24.27;22.30;;;5.00;93.60;;;;;;5085302;28;20566;-74
2021/11/06 08:14:53;;;;;;;1239.85;158.80;;;5.10;94.70;;;;;;5086973;28;20577;-74
2021/11/06 08:17:20;;;;;;;26.23;23.92;;;5.20;94.40;;;;;;5086947;28;20260;-74
2021/11/06 08:19:48;;;;;;;25.70;23.70;;;5.40;92.40;;;;;;5092113;28;20225;-74
2021/11/06 08:22:17;;;;;;;27.63;24.92;;;5.50;91.50;;;;;;5084825;28;20218;-74
2021/11/06 08:24:44;;;;;;;26.73;24.23;;;5.60;89.20;;;;;;5084714;28;20244;-75
2021/11/06 08:27:11;;;;;;;27.63;25.08;;;5.60;89.00;;;;;;5088949;28;20198;-74
2021/11/06 08:29:38;;;;;;;26.40;24.05;;;5.70;88.60;;;;;;5084454;28;20287;-75
2021/11/06 08:32:05;;;;;;;28.23;25.20;;;5.70;89.00;;;;;;5082500;28;20211;-74
2021/11/06 08:34:32;;;;;;;1107.90;139.90;;;5.70;92.30;;;;;;5081469;28;20249;-74
2021/11/06 08:37:00;;;;;;;28.05;25.25;;;5.70;91.40;;;;;;5077855;28;20191;-74
2021/11/06 08:39:28;;;;;;;27.17;24.48;;;5.80;89.70;;;;;;5085813;28;20208;-74
2021/11/06 08:41:57;;;;;;;28.58;25.77;;;5.70;89.90;;;;;;5086190;28;20335;-74
2021/11/06 08:44:25;;;;;;;28.67;25.95;;;5.60;89.80;;;;;;5076391;28;20195;-74
2021/11/06 08:46:55;;;;;;;28.58;26.08;;;5.60;90.60;;;;;;5079238;28;20319;-74
2021/11/06 08:49:24;;;;;;;29.70;26.88;;;5.50;90.50;;;;;;5084214;28;20245;-75
2021/11/06 08:51:52;;;;;;;28.63;25.90;;;5.60;90.90;;;;;;5084787;28;20284;-74
2021/11/06 08:54:25;;;;;;;27.23;24.45;;;5.80;91.70;;;;;;5084648;28;20199;-73
2021/11/06 08:56:55;;;;;;;25.65;22.92;;;5.90;91.30;;;;;;5087722;28;20191;-72
2021/11/06 08:59:22;;;;;;;30.13;26.90;;;6.00;92.20;;;;;;5084652;28;20314;-73
2021/11/06 09:01:52;;;;;;;26.55;24.08;;;6.20;91.50;;;;;;5079900;28;20512;-73
2021/11/06 09:04:23;;;;;;;28.25;25.05;;;6.40;90.60;;;;;;5087493;27;20195;-73
2021/11/06 09:06:50;;;;;;;27.80;25.30;;;6.60;90.80;;;;;;5085525;28;20280;-73
2021/11/06 09:09:17;;;;;;;25.50;22.85;;;6.90;89.70;;;;;;5082654;28;20688;-73
2021/11/06 09:11:46;;;;;;;304.98;42.95;;;6.90;88.20;;;;;;5082061;28;20200;-73
2021/11/06 09:14:15;;;;;;;25.73;23.42;;;6.90;94.40;;;;;;5086129;28;20202;-73
2021/11/06 09:16:44;;;;;;;260.48;46.83;;;6.90;92.10;;;;;;5082928;28;20291;-73
2021/11/06 09:19:11;;;;;;;28.08;25.10;;;7.00;95.90;;;;;;5088804;28;20192;-73
2021/11/06 09:21:39;;;;;;;25.40;23.13;;;7.20;92.10;;;;;;5074226;28;20564;-72
2021/11/06 09:24:06;;;;;;;25.75;23.55;;;7.30;90.00;;;;;;5077249;28;20199;-72
2021/11/06 09:26:34;;;;;;;28.63;26.05;;;7.40;88.90;;;;;;5079005;28;20708;-72
2021/11/06 09:29:02;;;;;;;28.35;25.75;;;7.70;87.60;;;;;;5087374;28;20285;-73
2021/11/06 09:31:30;;;;;;;29.35;26.65;;;7.90;85.80;;;;;;5083697;28;20571;-73
2021/11/06 09:33:57;;;;;;;28.27;25.98;;;7.90;85.30;;;;;;5085482;28;20653;-72
2021/11/06 09:36:25;;;;;;;116.72;34.22;;;8.10;85.40;;;;;;5076325;28;20197;-73
2021/11/06 09:38:54;;;;;;;116.60;32.85;;;8.20;85.60;;;;;;5086071;28;20206;-73
2021/11/06 09:41:22;;;;;;;29.95;27.58;;;8.30;85.70;;;;;;5078524;28;20215;-73
2021/11/06 09:43:49;;;;;;;26.90;24.70;;;8.40;84.50;;;;;;5071272;28;20219;-74
2021/11/06 09:46:17;;;;;;;28.38;26.13;;;8.30;84.20;;;;;;5071230;28;20220;-73
2021/11/06 09:48:47;;;;;;;29.17;27.08;;;8.10;84.50;;;;;;5075339;28;20199;-74
2021/11/06 09:51:16;;;;;;;30.50;28.02;;;8.10;84.80;;;;;;5077173;28;20200;-74
2021/11/06 09:53:45;;;;;;;30.42;28.02;;;8.30;85.30;;;;;;5082956;28;20211;-74
2021/11/06 09:56:15;;;;;;;30.25;27.95;;;8.60;83.50;;;;;;5084550;28;20221;-74
2021/11/06 09:58:43;;;;;;;28.13;25.85;;;8.70;85.90;;;;;;5088371;28;20290;-73
2021/11/06 10:01:11;;;;;;;29.10;26.90;;;8.80;81.50;;;;;;5086392;28;20377;-74
2021/11/06 10:03:39;;;;;;;29.92;27.52;;;8.60;80.90;;;;;;5081454;28;20297;-74
2021/11/06 10:06:17;;;;;;;28.15;26.02;;;8.60;81.50;;;;;;5088733;28;20325;-74
2021/11/06 10:08:45;;;;;;;31.13;28.40;;;8.60;82.20;;;;;;5081418;28;20203;-74
2021/11/06 10:11:14;;;;;;;31.13;28.83;;;8.70;82.70;;;;;;5087915;28;20195;-74
2021/11/06 10:13:49;;;;;;;30.92;28.42;;;8.70;81.90;;;;;;5069051;28;20592;-74
2021/11/06 10:16:19;;;;;;;30.20;27.70;;;8.70;82.40;;;;;;5084811;28;20202;-74
2021/11/06 10:18:46;;;;;;;105.90;35.20;;;8.90;83.00;;;;;;5088186;28;20588;-74
2021/11/06 10:21:14;;;;;;;30.52;28.02;;;9.00;84.70;;;;;;5087939;28;20565;-74
2021/11/06 10:23:43;;;;;;;32.78;29.95;;;9.00;85.60;;;;;;5083635;28;20657;-74
2021/11/06 10:26:15;;;;;;;32.05;29.35;;;9.10;82.50;;;;;;5087192;28;20624;-73
2021/11/06 10:28:43;;;;;;;33.33;30.70;;;8.90;82.40;;;;;;5085398;28;20207;-74
2021/11/06 10:31:11;;;;;;;36.30;33.17;;;8.60;82.50;;;;;;5088235;28;20234;-74
2021/11/06 10:33:46;;;;;;;33.40;30.70;;;8.80;83.40;;;;;;5076746;28;20215;-74
2021/11/06 10:36:24;;;;;;;32.45;29.65;;;9.10;83.00;;;;;;5080539;28;20268;-74
2021/11/06 10:39:04;;;;;;;31.02;28.17;;;9.10;85.70;;;;;;5080659;28;20721;-74
2021/11/06 10:41:32;;;;;;;31.50;28.80;;;9.20;86.50;;;;;;5081629;28;20563;-74
2021/11/06 10:43:59;;;;;;;32.10;29.40;;;9.40;85.50;;;;;;5083372;28;20553;-74
2021/11/06 10:46:29;;;;;;;33.50;30.80;;;9.50;83.70;;;;;;5086392;28;20887;-74
2021/11/06 10:48:56;;;;;;;33.30;30.50;;;9.70;83.80;;;;;;5078089;28;20195;-74
2021/11/06 10:51:25;;;;;;;34.73;31.73;;;10.10;81.30;;;;;;5084196;28;20537;-74
2021/11/06 10:53:53;;;;;;;36.50;33.30;;;10.20;80.60;;;;;;5086716;28;20484;-76
2021/11/06 10:56:28;;;;;;;37.60;34.20;;;10.20;80.60;;;;;;5079134;28;20625;-74
2021/11/06 10:58:58;;;;;;;32.07;29.37;;;10.20;81.50;;;;;;5086460;28;20476;-75
2021/11/06 11:01:26;;;;;;;37.33;34.10;;;10.40;81.20;;;;;;5082476;28;20461;-75
2021/11/06 11:04:00;;;;;;;36.90;33.50;;;10.30;81.30;;;;;;5085971;28;20556;-75
2021/11/06 11:06:37;;;;;;;38.00;34.67;;;10.30;79.50;;;;;;5089202;28;20477;-74
2021/11/06 11:09:05;;;;;;;41.73;37.83;;;10.20;78.60;;;;;;5086919;28;20491;-75
2021/11/06 11:11:33;;;;;;;35.63;32.50;;;10.00;80.20;;;;;;5100093;28;21016;-76
2021/11/06 11:14:02;;;;;;;36.50;33.40;;;9.90;85.00;;;;;;5086930;28;20472;-75
2021/11/06 11:16:30;;;;;;;36.20;32.90;;;10.10;82.80;;;;;;5087229;28;20456;-75
2021/11/06 11:19:02;;;;;;;38.67;35.30;;;10.20;80.40;;;;;;5087287;28;20457;-75
2021/11/06 11:21:33;;;;;;;36.30;33.00;;;10.00;79.50;;;;;;5087038;28;20452;-75
2021/11/06 11:24:02;;;;;;;37.40;34.00;;;9.70;80.90;;;;;;5088115;28;20939;-75
2021/11/06 11:26:32;;;;;;;35.73;32.57;;;9.60;82.20;;;;;;5092122;28;20476;-75
2021/11/06 11:29:04;;;;;;;35.67;32.67;;;9.70;82.00;;;;;;5087684;27;20468;-75
2021/11/06 11:31:31;;;;;;;38.30;34.80;;;9.70;82.40;;;;;;5088714;28;20971;-76
2021/11/06 11:33:59;;;;;;;35.77;32.63;;;9.70;82.80;;;;;;5084754;28;20457;-75
2021/11/06 11:36:28;;;;;;;37.47;34.17;;;9.70;82.90;;;;;;5086870;28;20456;-75
2021/11/06 11:39:00;;;;;;;39.57;34.53;;;9.70;85.80;;;;;;5085801;28;20465;-77
2021/11/06 11:42:07;;;;;;;36.87;33.67;;;9.80;84.50;;;;;;5093906;28;20453;-74
2021/11/06 11:45:08;;;;;;;36.43;33.33;;;9.90;81.90;;;;;;5066555;28;20444;-75
2021/11/06 11:47:41;;;;;;;37.03;34.07;;;9.90;81.20;;;;;;5075470;28;20476;-75
2021/11/06 11:50:15;;;;;;;37.17;33.97;;;9.70;81.80;;;;;;5086279;28;20496;-75
2021/11/06 11:52:43;;;;;;;38.80;35.60;;;9.70;81.50;;;;;;5092997;28;20863;-75
2021/11/06 11:55:14;;;;;;;36.90;33.70;;;9.50;82.60;;;;;;5091902;28;20463;-74
2021/11/06 11:57:43;;;;;;;37.27;34.07;;;9.50;83.10;;;;;;5086508;28;20459;-75
2021/11/06 12:00:35;;;;;;;36.10;33.10;;;9.50;82.40;;;;;;5096743;27;20469;-74
2021/11/06 12:03:03;;;;;;;39.63;36.20;;;9.60;82.10;;;;;;5068401;28;20975;-75
2021/11/06 12:05:35;;;;;;;37.57;34.30;;;9.60;82.20;;;;;;5088129;28;20445;-75
2021/11/06 12:08:31;;;;;;;40.23;36.50;;;9.50;82.50;;;;;;5088981;28;20480;-74
2021/11/06 12:11:33;;;;;;;41.47;37.67;;;9.60;82.60;;;;;;5087122;28;20958;-76
2021/11/06 12:14:02;;;;;;;40.70;37.43;;;9.60;84.50;;;;;;5077583;28;20549;-77
2021/11/06 12:16:47;;;;;;;36.07;33.07;;;9.60;83.50;;;;;;5075699;28;21215;-76
2021/11/06 12:19:36;;;;;;;39.47;36.00;;;9.60;82.30;;;;;;5087892;28;20537;-76
2021/11/06 12:22:09;;;;;;;39.47;36.10;;;9.50;82.40;;;;;;5083769;28;20481;-74
2021/11/06 12:24:36;;;;;;;39.77;36.20;;;9.30;82.90;;;;;;5087547;28;20489;-75
2021/11/06 12:27:08;;;;;;;39.40;35.83;;;9.30;84.00;;;;;;5086336;28;20547;-75
2021/11/06 12:29:46;;;;;;;39.57;36.17;;;9.40;82.60;;;;;;5086814;28;20544;-76
2021/11/06 12:32:18;;;;;;;40.20;36.27;;;9.50;82.50;;;;;;5081497;28;20476;-75
2021/11/06 12:34:48;;;;;;;40.70;37.10;;;9.60;82.30;;;;;;5082311;28;20460;-76
2021/11/06 12:37:47;;;;;;;39.37;35.97;;;9.50;82.50;;;;;;5089316;28;20464;-74
2021/11/06 12:40:23;;;;;;;43.87;39.80;;;9.50;82.30;;;;;;5088820;28;20453;-77
2021/11/06 12:43:26;;;;;;;40.30;36.70;;;9.60;82.30;;;;;;5089411;28;21263;-77